Jackson, MI (49202)

5:53 PM EDT on August 30, 2014 (GMT -0400)
Cork 'n Cap | Change Station
CLOSE
Current Station
Personal Weather Station
Location: Jackson, MI
Elevation: 978 ft
Nearby Weather Stations

Elev 978 ft 42.26 °N, 84.42 °W | Updated 1 minute ago

Scattered Clouds
Scattered Clouds
83.0 °F
Feels Like 84 °F
N
-
Wind Variable Wind from North

Today
High -- | Low -- °F
--% Chance of Precip.
Yesterday
High -- | Low -- °F
Precip. -- in
7:00 AM 8:14 PM
Waxing Crescent, 25% visible
Pressure 29.85 in
Visibility 10.0 miles
Clouds Few 4300 ft
Scattered Clouds 5500 ft
Heat Index 84 °F
Dew Point 64 °F
Humidity 53%
Rainfall 0.00 in
Snow Depth Not available.
UV 3 out of 12
Pollen 7.10 out of 12
Ozone Good
PM2.5 Good
Flu Activity Not available.
METAR KJXN 302056Z 22011G26KT 10SM FEW043 SCT055 29/19 A2987 RMK AO2 PK WND 20026/2047 SLP108 T02890194 56018

More Conditions Fewer Conditions

Pressure 29.85 in
Visibility 10.0 miles
Clouds Few 4300 ft
Scattered Clouds 5500 ft
Heat Index 84 °F
Dew Point 64 °F
Humidity 53%
Rainfall 0.00 in
Snow Depth Not available.
UV 3 out of 12
Pollen 7.10 out of 12
Ozone Good
PM2.5 Good
Flu Activity Not available.
METAR KJXN 302056Z 22011G26KT 10SM FEW043 SCT055 29/19 A2987 RMK AO2 PK WND 20026/2047 SLP108 T02890194 56018

More Conditions Fewer Conditions

10-Day Weather Forecast

Almanac

Astronomy

Aug. 30, 2014 Rise Set
Actual Time 7:00 AM EDT 8:14 PM EDT
Civil Twilight 6:31 AM EDT 8:43 PM EDT
Nautical Twilight 5:57 AM EDT 9:18 PM EDT
Astronomical Twilight 5:20 AM EDT 9:54 PM EDT
Moon 11:53 AM EDT 10:42 PM EDT
Length of Visible Light 14h 11m
Length of Day
13h 14m
Tomorrow will be 2m 43s shorter.
Waxing Crescent, 25% of the Moon is Illuminated
Today
Waxing Crescent
Sep 2
First Quarter
Sep 8
Full
Sep 15
Last Quarter
Sep 24
New

Today's Extremes

State Highs State Lows

Community

WunderPhotos

Upload Photos

1,748,647 photos uploaded!

WunderBlogs® & News

Nearby

Air Quality

  Air Quality AQ Index Pollutant
Yesterday Good
OZONE
Yesterday Good
PM2.5
Current Good
PM2.5
Current Good
OZONE
Saturday Moderate
PM2.5
Saturday Good
OZONE
Sunday Good
OZONE
Sunday Good
PM2.5
Monday Good
OZONE
Monday Good
PM2.5
Tuesday Good
OZONE
Tuesday Good
PM2.5

Snow Depth

Station Depth Elevation
No new snow has been reported.

Earthquake Activity

City Distance Mag. Time & Date
No recent earthquake activity has been reported nearby.
Minimum magnitude displayed is 2.5.

Coastal Water Temperatures

Place Temperature
No Stations Reporting

Nearby Weather Stations